Estación Meteorológica Peña el Pijo (Robertgarden) [ 12/09/19 16:25:30 CET ]

Fecha Hora Presion(HPa) Temp (°C) Humedad % Rocio (°C) Viento ( m/s) Direccion Lluvia 1Hora(mm) Lluvia 24H(mm) LLuvia Total(mm)
2019-Aug-27 01:01:58 1011.400 14.9 83 12.0     10.36 10.87 383.03
2019-Aug-27 02:01:41 1010.300 13.8 86 11.5     1.03 12.95 385.10
2019-Aug-27 03:01:44 1009.500 13.5 88 11.5       12.95 385.10
2019-Aug-27 04:01:42 1009.100 13.3 89 11.5       12.95 385.10
2019-Aug-27 05:03:11 1009.300 12.9 89 11.1       12.95 385.10
2019-Aug-27 06:01:41 1009.500 12.4 90 10.8       12.95 385.10
2019-Aug-27 07:01:48 1009.400 12.4 90 10.8       12.95 385.10
2019-Aug-27 08:01:46 1009.800 12.2 90 10.6       12.95 385.10
2019-Aug-27 09:01:49 1009.700 14.6 91 13.2       12.95 385.10
2019-Aug-27 10:02:05 1009.700 17.9 89 16.1       12.95 385.10
2019-Aug-27 11:01:40 1009.800 21.8 75 17.1       12.95 385.10
2019-Aug-27 12:01:48 1009.700 24.9 52 14.4       12.95 385.10
2019-Aug-27 13:01:49 1009.600 27.3 42 13.2       12.95 385.10
2019-Aug-27 14:01:56 1009.600 27.9 37 11.8       12.95 385.10
2019-Aug-27 15:01:43 1009.400 25.5 40 10.9       12.95 385.10
2019-Aug-27 16:01:42 1009.000 26.3 39 11.2       12.95 385.10
2019-Aug-27 17:01:49 1009.100 26.2 42 12.3       12.95 385.10
2019-Aug-27 18:01:48 1008.800 27.1 40 12.4       12.95 385.10
2019-Aug-27 19:01:45 1009.300 26.6 38 11.1       12.95 385.10
2019-Aug-27 20:01:48 1009.700 23.6 43 10.2       12.95 385.10
2019-Aug-27 21:01:49 1010.400 21.0 50 10.2       12.95 385.10
2019-Aug-27 22:01:48 1011.000 19.5 58 11.0       12.95 385.10
2019-Aug-27 23:01:52 1011.500 17.1 69 11.4       12.43 385.10

Temperatura Máxima:27°    Temperatura Mínima:12°
Presión Máxima:1011.500 Hpa    Presión Mínima:1008.800 Hpa


Volver